createdAt,value
2023-04-23T00:01:57.402Z,82.50
2023-04-23T00:04:02.215Z,82.60
2023-04-23T00:06:08.004Z,83.50
2023-04-23T00:08:12.235Z,82.40
2023-04-23T00:10:16.329Z,83.00
2023-04-23T00:12:21.071Z,82.50
2023-04-23T00:14:24.859Z,83.10
2023-04-23T00:16:30.296Z,82.60
2023-04-23T00:18:33.766Z,82.40
2023-04-23T00:20:37.233Z,83.20
2023-04-23T00:22:41.198Z,83.80
2023-04-23T00:24:44.950Z,84.00
2023-04-23T00:26:48.189Z,85.10
2023-04-23T00:28:51.637Z,84.50
2023-04-23T00:30:54.855Z,84.20
2023-04-23T00:32:59.915Z,83.70
2023-04-23T00:35:03.250Z,83.50
2023-04-23T00:37:07.923Z,83.60
2023-04-23T00:39:11.748Z,83.00
2023-04-23T00:41:16.192Z,83.80
2023-04-23T00:43:20.683Z,83.90
2023-04-23T00:45:23.905Z,83.70
2023-04-23T00:47:27.842Z,84.20
2023-04-23T00:49:32.764Z,84.20
2023-04-23T00:51:35.991Z,84.00
2023-04-23T00:53:39.261Z,84.10
2023-04-23T00:55:42.740Z,84.40
2023-04-23T00:57:46.059Z,84.50
2023-04-23T00:59:49.900Z,85.10
2023-04-23T01:01:53.141Z,85.50
2023-04-23T01:03:56.893Z,86.10
2023-04-23T01:06:02.034Z,85.40
2023-04-23T01:08:05.535Z,85.40
2023-04-23T01:10:10.180Z,84.80
2023-04-23T01:12:14.381Z,84.60
2023-04-23T01:14:17.591Z,84.20
2023-04-23T01:16:22.123Z,84.00
2023-04-23T01:18:26.966Z,83.90
2023-04-23T01:20:30.227Z,83.80
2023-04-23T01:22:36.064Z,84.80
2023-04-23T01:24:41.414Z,84.50
2023-04-23T01:26:45.015Z,84.20
2023-04-23T01:28:48.644Z,84.60
2023-04-23T01:30:53.027Z,85.10
2023-04-23T01:32:57.256Z,86.20
2023-04-23T01:35:01.281Z,86.20
2023-04-23T01:37:05.496Z,85.40
2023-04-23T01:39:10.512Z,84.80
2023-04-23T01:41:13.812Z,84.50
2023-04-23T01:43:18.516Z,84.70
2023-04-23T01:45:22.301Z,85.10
2023-04-23T01:47:26.551Z,85.10
2023-04-23T01:49:30.200Z,85.40
2023-04-23T01:51:33.382Z,84.80
2023-04-23T01:53:36.655Z,84.90
2023-04-23T01:55:42.536Z,85.30
2023-04-23T01:57:45.946Z,86.30
2023-04-23T01:59:49.216Z,86.90
2023-04-23T02:01:52.507Z,92.90
2023-04-23T02:03:56.012Z,88.60
2023-04-23T02:06:00.882Z,85.60
2023-04-23T02:08:04.802Z,87.30
2023-04-23T02:10:09.459Z,85.80
2023-04-23T02:12:15.823Z,85.70
2023-04-23T02:14:19.043Z,85.70
2023-04-23T02:16:24.725Z,86.20
2023-04-23T02:18:28.227Z,86.70
2023-04-23T02:20:31.811Z,86.70
2023-04-23T02:22:35.172Z,85.90
2023-04-23T02:24:39.077Z,85.00
2023-04-23T02:26:42.558Z,84.60
2023-04-23T02:28:47.592Z,84.50
2023-04-23T02:30:50.842Z,84.70
2023-04-23T02:32:54.300Z,84.60
2023-04-23T02:34:59.073Z,84.90
2023-04-23T02:37:02.253Z,85.30
2023-04-23T02:39:06.489Z,85.20
2023-04-23T02:41:09.720Z,85.70
2023-04-23T02:43:12.875Z,85.70
2023-04-23T02:45:18.290Z,85.60
2023-04-23T02:47:21.655Z,86.10
2023-04-23T02:49:24.771Z,85.80
2023-04-23T02:51:27.985Z,85.50
2023-04-23T02:53:31.507Z,85.20
2023-04-23T02:55:34.654Z,84.90
2023-04-23T02:57:38.157Z,84.70
2023-04-23T02:59:41.423Z,85.10
2023-04-23T03:01:46.027Z,85.10
2023-04-23T03:03:49.661Z,85.90
2023-04-23T03:05:53.391Z,86.30
2023-04-23T03:07:56.575Z,86.50
2023-04-23T03:10:00.109Z,87.50
2023-04-23T03:12:03.432Z,87.10
2023-04-23T03:14:06.614Z,87.50
2023-04-23T03:16:11.595Z,86.50
2023-04-23T03:18:16.665Z,86.30
2023-04-23T03:20:20.011Z,86.40
2023-04-23T03:22:23.325Z,85.90
2023-04-23T03:24:27.242Z,85.50
2023-04-23T03:26:30.536Z,85.10
2023-04-23T03:28:34.231Z,85.20
2023-04-23T03:30:37.905Z,85.60
2023-04-23T03:32:41.532Z,85.70
2023-04-23T03:34:46.324Z,85.60
2023-04-23T03:36:51.169Z,86.20
2023-04-23T03:38:54.572Z,86.10
2023-04-23T03:40:57.818Z,85.60
2023-04-23T03:43:01.555Z,86.30
2023-04-23T03:45:05.836Z,86.90
2023-04-23T03:47:09.151Z,87.00
2023-04-23T03:49:12.306Z,88.70
2023-04-23T03:51:17.081Z,87.40
2023-04-23T03:53:20.332Z,85.40
2023-04-23T03:55:23.749Z,85.40
2023-04-23T03:57:27.435Z,85.60
2023-04-23T03:59:30.593Z,86.60
2023-04-23T04:01:36.236Z,86.80
2023-04-23T04:03:40.031Z,87.10
2023-04-23T04:05:44.436Z,87.20
2023-04-23T04:07:49.097Z,87.00
2023-04-23T04:09:52.635Z,87.00
2023-04-23T04:11:56.537Z,87.40
2023-04-23T04:13:59.798Z,87.60
2023-04-23T04:16:03.237Z,87.50
2023-04-23T04:18:07.157Z,86.40
2023-04-23T04:20:12.125Z,86.50
2023-04-23T04:22:16.177Z,86.20
2023-04-23T04:24:23.146Z,86.90
2023-04-23T04:26:27.545Z,86.70
2023-04-23T04:28:36.198Z,86.10
2023-04-23T04:30:39.564Z,85.70
2023-04-23T04:32:43.245Z,85.70
2023-04-23T04:34:46.955Z,85.50
2023-04-23T04:36:51.680Z,85.30
2023-04-23T04:38:56.208Z,85.30
2023-04-23T04:41:02.400Z,85.10
2023-04-23T04:43:06.428Z,84.70
2023-04-23T04:45:10.510Z,84.60
2023-04-23T04:47:16.373Z,84.80
2023-04-23T04:49:19.936Z,85.50
2023-04-23T04:51:23.247Z,85.40
2023-04-23T04:53:26.404Z,84.80
2023-04-23T04:55:29.799Z,84.50
2023-04-23T04:57:34.378Z,84.50
2023-04-23T04:59:37.431Z,84.50
2023-04-23T05:01:41.144Z,84.30
2023-04-23T05:03:44.764Z,83.00
2023-04-23T05:05:48.586Z,82.40
2023-04-23T05:07:54.203Z,82.50
2023-04-23T05:09:57.317Z,81.40
2023-04-23T05:12:01.767Z,80.50
2023-04-23T05:14:06.352Z,80.90
2023-04-23T05:16:09.964Z,80.50
2023-04-23T05:18:13.220Z,80.30
2023-04-23T05:20:16.343Z,80.40
2023-04-23T05:22:19.517Z,80.70
2023-04-23T05:24:22.695Z,80.30
2023-04-23T05:26:25.898Z,80.00
2023-04-23T05:28:29.158Z,79.40
2023-04-23T05:30:33.780Z,78.80
2023-04-23T05:32:37.249Z,78.70
2023-04-23T05:34:42.166Z,78.50
2023-04-23T05:36:45.495Z,77.90
2023-04-23T05:38:48.844Z,76.60
2023-04-23T05:40:52.338Z,77.60
2023-04-23T05:42:56.062Z,77.50
2023-04-23T05:44:59.498Z,76.40
2023-04-23T05:47:04.083Z,76.80
2023-04-23T05:49:07.686Z,74.90
2023-04-23T05:51:10.928Z,73.90
2023-04-23T05:53:14.191Z,73.00
2023-04-23T05:55:18.363Z,71.20
2023-04-23T05:57:21.698Z,68.60
2023-04-23T05:59:26.383Z,69.50
2023-04-23T06:01:30.194Z,61.80
2023-04-23T06:03:36.391Z,61.60
2023-04-23T06:05:40.193Z,57.20
2023-04-23T06:07:43.886Z,55.60
2023-04-23T06:09:47.301Z,54.00
2023-04-23T06:11:51.852Z,60.00
2023-04-23T06:13:56.635Z,58.60
2023-04-23T06:16:00.236Z,50.10
2023-04-23T06:18:03.479Z,51.80
2023-04-23T06:20:11.989Z,48.80
2023-04-23T06:22:15.726Z,46.30
2023-04-23T06:24:18.907Z,43.60
2023-04-23T06:26:22.170Z,40.90
2023-04-23T06:28:25.602Z,37.60
2023-04-23T06:30:29.110Z,39.30
2023-04-23T06:32:32.288Z,36.80
2023-04-23T06:34:35.418Z,38.90
2023-04-23T06:36:39.978Z,37.00
2023-04-23T06:38:44.633Z,34.30
2023-04-23T06:40:47.872Z,35.00
2023-04-23T06:42:51.156Z,36.80
2023-04-23T06:44:54.572Z,33.30
2023-04-23T06:46:57.855Z,30.10
2023-04-23T06:49:01.522Z,33.30
2023-04-23T06:51:06.079Z,34.20
2023-04-23T06:53:10.642Z,34.90
2023-04-23T06:55:14.211Z,32.90
2023-04-23T06:57:17.579Z,31.10
2023-04-23T06:59:21.075Z,31.90
2023-04-23T07:01:24.483Z,30.20
2023-04-23T07:03:28.664Z,29.40
2023-04-23T07:05:32.185Z,29.50
2023-04-23T07:07:37.486Z,30.10
2023-04-23T07:09:42.083Z,31.60
2023-04-23T07:11:45.254Z,28.70
2023-04-23T07:13:48.518Z,28.50
2023-04-23T07:15:51.915Z,28.70
2023-04-23T07:17:55.113Z,29.20
2023-04-23T07:19:58.769Z,30.10
2023-04-23T07:22:01.950Z,42.40
2023-04-23T07:24:07.147Z,28.00
2023-04-23T07:26:12.170Z,26.80
2023-04-23T07:28:15.543Z,27.10
2023-04-23T07:30:19.227Z,27.10
2023-04-23T07:32:23.973Z,27.70
2023-04-23T07:34:27.590Z,28.60
2023-04-23T07:36:31.382Z,28.10
2023-04-23T07:38:34.697Z,28.40
2023-04-23T07:40:38.091Z,28.30
2023-04-23T07:42:43.089Z,27.90
2023-04-23T07:44:46.375Z,28.10
2023-04-23T07:46:49.564Z,26.80
2023-04-23T07:48:53.112Z,30.40
2023-04-23T07:50:57.076Z,28.40
2023-04-23T07:53:00.533Z,26.70
2023-04-23T07:55:03.994Z,26.40
2023-04-23T07:57:07.440Z,26.60
2023-04-23T07:59:12.032Z,26.50
2023-04-23T08:01:15.558Z,27.30
2023-04-23T08:03:18.984Z,25.70
2023-04-23T08:05:22.689Z,26.20
2023-04-23T08:07:26.166Z,28.40
2023-04-23T08:09:29.264Z,27.10
2023-04-23T08:11:32.590Z,27.70
2023-04-23T08:13:35.933Z,25.20
2023-04-23T08:15:40.722Z,27.50
2023-04-23T08:17:43.981Z,27.00
2023-04-23T08:19:47.173Z,25.00
2023-04-23T08:21:50.783Z,27.00
2023-04-23T08:23:54.555Z,26.40
2023-04-23T08:25:57.887Z,29.00
2023-04-23T08:28:01.081Z,28.10
2023-04-23T08:30:04.632Z,28.70
2023-04-23T08:32:09.327Z,29.20
2023-04-23T08:34:15.021Z,29.80
2023-04-23T08:36:18.206Z,29.80
2023-04-23T08:38:21.607Z,27.60
2023-04-23T08:40:25.225Z,28.50
2023-04-23T08:42:39.954Z,28.10
2023-04-23T08:44:43.953Z,25.60
2023-04-23T08:46:47.774Z,27.40
2023-04-23T08:48:54.746Z,25.00
2023-04-23T08:50:59.036Z,28.20
2023-04-23T08:53:06.995Z,28.80
2023-04-23T08:55:11.893Z,25.50
2023-04-23T08:57:16.858Z,25.40
2023-04-23T08:59:21.532Z,23.70
2023-04-23T09:01:25.204Z,23.30
2023-04-23T09:03:30.406Z,24.30
2023-04-23T09:05:35.536Z,24.20
2023-04-23T09:07:39.140Z,25.00
2023-04-23T09:09:43.107Z,25.10
2023-04-23T09:11:46.676Z,26.80
2023-04-23T09:13:53.487Z,26.90
2023-04-23T09:15:56.994Z,25.80
2023-04-23T09:18:02.005Z,23.70
2023-04-23T09:20:06.144Z,23.10
2023-04-23T09:22:11.138Z,23.40
2023-04-23T09:24:16.304Z,22.80
2023-04-23T09:26:21.990Z,23.10
2023-04-23T09:28:36.404Z,26.20
2023-04-23T09:30:42.358Z,26.00
2023-04-23T09:32:47.180Z,28.30
2023-04-23T09:34:58.279Z,29.70
2023-04-23T09:37:01.882Z,27.30
2023-04-23T09:39:14.057Z,24.70
2023-04-23T09:41:27.791Z,26.10
2023-04-23T09:43:32.227Z,28.40
2023-04-23T09:45:36.497Z,26.90
2023-04-23T09:47:40.797Z,25.10
2023-04-23T09:49:48.203Z,24.90
2023-04-23T09:51:51.425Z,28.10
2023-04-23T09:53:54.923Z,25.60
2023-04-23T09:55:59.530Z,25.20
2023-04-23T09:58:04.185Z,26.10
2023-04-23T10:00:17.094Z,24.70
2023-04-23T10:02:21.149Z,25.70
2023-04-23T10:04:26.307Z,24.90
2023-04-23T10:06:44.410Z,25.20
2023-04-23T10:08:56.272Z,27.90
2023-04-23T10:11:10.138Z,25.20
2023-04-23T10:13:22.951Z,26.20
2023-04-23T10:15:27.884Z,29.30
2023-04-23T10:17:31.686Z,27.20
2023-04-23T10:19:35.685Z,24.10
2023-04-23T10:21:52.324Z,22.20
2023-04-23T10:24:00.269Z,22.90
2023-04-23T10:26:06.218Z,24.10
2023-04-23T10:28:13.125Z,22.90
2023-04-23T10:30:16.630Z,25.50
2023-04-23T10:32:21.506Z,24.10
2023-04-23T10:34:26.721Z,24.40
2023-04-23T10:36:30.204Z,25.10
2023-04-23T10:38:33.538Z,23.30
2023-04-23T10:40:39.309Z,22.20
2023-04-23T10:42:45.606Z,26.60
2023-04-23T10:46:57.495Z,24.60
2023-04-23T10:49:14.898Z,25.30
2023-04-23T10:53:38.591Z,26.90
2023-04-23T10:55:43.506Z,27.00
2023-04-23T10:58:03.637Z,28.60
2023-04-23T11:00:09.772Z,27.30
2023-04-23T11:02:14.932Z,27.00
2023-04-23T11:04:23.898Z,27.20
2023-04-23T11:06:53.133Z,25.90
2023-04-23T11:08:57.847Z,29.30
2023-04-23T11:11:02.248Z,27.60
2023-04-23T11:13:26.485Z,27.40
2023-04-23T11:15:32.315Z,27.40
2023-04-23T11:18:00.687Z,29.10
2023-04-23T11:20:10.451Z,28.50
2023-04-23T11:22:20.532Z,29.60
2023-04-23T11:24:24.047Z,29.50
2023-04-23T11:26:32.057Z,30.50
2023-04-23T11:28:40.599Z,33.10
2023-04-23T11:30:43.811Z,34.00
2023-04-23T11:32:49.420Z,34.00
2023-04-23T11:34:54.542Z,29.80
2023-04-23T11:37:00.629Z,33.10
2023-04-23T11:39:04.129Z,30.10
2023-04-23T11:41:07.887Z,30.20
2023-04-23T11:43:10.998Z,32.40
2023-04-23T11:45:20.338Z,30.50
2023-04-23T11:47:27.389Z,32.90
2023-04-23T11:49:30.991Z,32.40
2023-04-23T11:51:34.273Z,31.10
2023-04-23T11:53:37.777Z,32.80
2023-04-23T11:55:44.049Z,30.70
2023-04-23T11:57:49.873Z,33.40
2023-04-23T11:59:55.474Z,30.00
2023-04-23T12:02:01.473Z,32.30
2023-04-23T12:04:11.934Z,33.30
2023-04-23T12:06:19.136Z,31.00
2023-04-23T12:08:23.197Z,32.90
2023-04-23T12:10:27.037Z,33.40
2023-04-23T12:12:35.521Z,32.60
2023-04-23T12:14:38.683Z,31.70
2023-04-23T12:16:43.070Z,30.10
2023-04-23T12:18:48.090Z,31.70
2023-04-23T12:20:51.679Z,30.60
2023-04-23T12:22:55.115Z,33.10
2023-04-23T12:25:00.247Z,29.70
2023-04-23T12:27:03.628Z,30.80
2023-04-23T12:29:09.176Z,32.10
2023-04-23T12:31:12.432Z,34.00
2023-04-23T12:33:15.686Z,34.90
2023-04-23T12:35:20.769Z,33.60
2023-04-23T12:37:26.821Z,33.50
2023-04-23T12:39:32.192Z,36.50
2023-04-23T12:41:35.525Z,35.50
2023-04-23T12:43:38.809Z,31.80
2023-04-23T12:45:42.212Z,34.00
2023-04-23T12:47:45.751Z,32.60
2023-04-23T12:49:53.911Z,35.70
2023-04-23T12:52:01.610Z,34.60
2023-04-23T12:54:05.481Z,33.70
2023-04-23T12:56:08.707Z,34.10
2023-04-23T12:58:12.266Z,33.70
2023-04-23T13:00:16.627Z,34.80
2023-04-23T13:02:20.114Z,38.00
2023-04-23T13:04:23.665Z,36.30
2023-04-23T13:06:29.218Z,36.00
2023-04-23T13:08:34.147Z,34.20
2023-04-23T13:10:38.406Z,35.30
2023-04-23T13:12:41.914Z,37.00
2023-04-23T13:14:47.662Z,34.80
2023-04-23T13:16:51.168Z,34.40
2023-04-23T13:18:54.700Z,36.60
2023-04-23T13:20:58.003Z,37.70
2023-04-23T13:23:03.075Z,37.90
2023-04-23T13:25:09.002Z,36.40
2023-04-23T13:27:12.370Z,39.50
2023-04-23T13:29:16.436Z,36.60
2023-04-23T13:31:20.019Z,35.20
2023-04-23T13:33:23.168Z,35.80
2023-04-23T13:35:26.979Z,37.00
2023-04-23T13:37:31.577Z,35.00
2023-04-23T13:39:35.172Z,35.30
2023-04-23T13:41:39.809Z,38.10
2023-04-23T13:43:43.207Z,37.00
2023-04-23T13:45:47.057Z,35.80
2023-04-23T13:47:50.278Z,39.20
2023-04-23T13:49:54.073Z,37.00
2023-04-23T13:52:00.425Z,36.30
2023-04-23T13:54:03.852Z,36.20
2023-04-23T13:56:07.499Z,34.40
2023-04-23T13:58:12.768Z,37.30
2023-04-23T14:00:16.832Z,36.20
2023-04-23T14:02:20.297Z,36.70
2023-04-23T14:04:24.199Z,35.90
2023-04-23T14:06:27.902Z,38.50
2023-04-23T14:08:36.714Z,39.70
2023-04-23T14:10:43.018Z,39.80
2023-04-23T14:12:47.945Z,37.00
2023-04-23T14:14:53.075Z,37.20
2023-04-23T14:16:57.153Z,37.20
2023-04-23T14:19:00.455Z,39.10
2023-04-23T14:21:03.781Z,36.60
2023-04-23T14:23:45.365Z,36.10
2023-04-23T14:25:48.703Z,40.70
2023-04-23T14:27:52.865Z,40.40
2023-04-23T14:30:05.417Z,42.00
2023-04-23T14:32:08.929Z,39.40
2023-04-23T14:34:12.570Z,38.20
2023-04-23T14:36:15.908Z,39.80
2023-04-23T14:38:19.501Z,39.30
2023-04-23T14:40:22.971Z,40.30
2023-04-23T14:42:26.617Z,38.30
2023-04-23T14:44:29.939Z,38.80
2023-04-23T14:46:37.430Z,39.80
2023-04-23T14:48:41.378Z,40.20
2023-04-23T14:50:44.974Z,40.20
2023-04-23T14:52:49.940Z,41.70
2023-04-23T14:54:54.032Z,39.60
2023-04-23T14:56:57.900Z,40.90
2023-04-23T14:59:01.191Z,42.70
2023-04-23T15:01:06.343Z,42.00
2023-04-23T15:03:12.783Z,42.50
2023-04-23T15:05:16.793Z,42.60
2023-04-23T15:07:20.243Z,42.00
2023-04-23T15:09:23.719Z,43.00
2023-04-23T15:11:26.829Z,43.20
2023-04-23T15:13:40.417Z,43.40
2023-04-23T15:15:46.016Z,42.60
2023-04-23T15:17:49.359Z,43.40
2023-04-23T15:19:56.534Z,44.10
2023-04-23T15:22:00.002Z,45.40
2023-04-23T15:24:03.353Z,46.30
2023-04-23T15:26:06.650Z,45.60
2023-04-23T15:28:10.330Z,45.20
2023-04-23T15:30:14.634Z,45.60
2023-04-23T15:32:18.112Z,46.70
2023-04-23T15:34:21.416Z,46.80
2023-04-23T15:36:25.984Z,47.70
2023-04-23T15:38:29.354Z,47.40
2023-04-23T15:40:33.418Z,47.30
2023-04-23T15:42:36.603Z,48.50
2023-04-23T15:44:40.359Z,49.10
2023-04-23T15:46:43.884Z,48.10
2023-04-23T15:48:47.019Z,48.50
2023-04-23T15:50:50.462Z,49.10
2023-04-23T15:59:44.513Z,60.80
2023-04-23T16:01:47.948Z,65.40
2023-04-23T16:04:08.000Z,66.80
2023-04-23T16:06:13.353Z,66.50
2023-04-23T16:08:17.465Z,66.00
2023-04-23T16:10:20.880Z,67.20
2023-04-23T16:12:24.320Z,68.00
2023-04-23T16:14:27.718Z,68.60
2023-04-23T16:16:32.817Z,70.60
2023-04-23T16:18:36.079Z,73.40
2023-04-23T16:20:39.637Z,74.20
2023-04-23T16:22:42.827Z,72.80
2023-04-23T16:24:46.321Z,71.70
2023-04-23T16:26:49.857Z,70.00
2023-04-23T16:29:05.779Z,69.90
2023-04-23T16:31:14.812Z,69.70
2023-04-23T16:33:19.475Z,69.20
2023-04-23T16:35:22.989Z,68.60
2023-04-23T16:37:26.471Z,71.30
2023-04-23T16:39:29.702Z,74.20
2023-04-23T16:41:33.076Z,78.00
2023-04-23T16:43:36.800Z,79.70
2023-04-23T16:45:41.324Z,80.20
2023-04-23T16:47:44.818Z,78.30
2023-04-23T16:49:49.683Z,75.90
2023-04-23T16:51:54.476Z,78.40
2023-04-23T16:53:59.142Z,78.20
2023-04-23T16:56:02.724Z,79.60
2023-04-23T16:58:06.650Z,80.00
2023-04-23T17:00:11.957Z,80.20
2023-04-23T17:02:15.458Z,79.20
2023-04-23T17:04:19.138Z,79.80
2023-04-23T17:06:27.642Z,80.20
2023-04-23T17:08:30.980Z,79.50
2023-04-23T17:10:34.438Z,79.60
2023-04-23T17:12:37.544Z,79.20
2023-04-23T17:14:41.009Z,81.20
2023-04-23T17:16:44.607Z,83.40
2023-04-23T17:18:48.219Z,84.40
2023-04-23T17:20:51.598Z,83.70
2023-04-23T17:22:56.470Z,84.10
2023-04-23T17:25:00.050Z,83.40
2023-04-23T17:27:03.251Z,84.40
2023-04-23T17:29:06.462Z,85.50
2023-04-23T17:31:10.178Z,85.50
2023-04-23T17:33:14.412Z,85.10
2023-04-23T17:35:17.909Z,84.90
2023-04-23T17:37:21.920Z,84.60
2023-04-23T17:39:26.777Z,85.00
2023-04-23T17:41:30.237Z,85.70
2023-04-23T17:43:35.016Z,86.10
2023-04-23T17:45:38.465Z,86.70
2023-04-23T17:47:42.207Z,85.40
2023-04-23T17:49:45.767Z,85.90
2023-04-23T17:51:49.040Z,86.10
2023-04-23T17:53:52.535Z,87.70
2023-04-23T17:56:02.928Z,88.70
2023-04-23T17:58:06.712Z,88.30
2023-04-23T18:00:12.362Z,90.00
2023-04-23T18:02:16.184Z,90.20
2023-04-23T18:04:19.507Z,88.90
2023-04-23T18:06:23.165Z,90.50
2023-04-23T18:08:26.430Z,89.90
2023-04-23T18:10:29.974Z,88.60
2023-04-23T18:12:35.293Z,87.70
2023-04-23T18:14:39.878Z,86.60
2023-04-23T18:16:43.391Z,86.50
2023-04-23T18:18:46.965Z,86.20
2023-04-23T18:20:52.104Z,86.40
2023-04-23T18:22:55.548Z,86.80
2023-04-23T18:24:59.300Z,87.00
2023-04-23T18:27:03.197Z,87.00
2023-04-23T18:29:08.350Z,88.80
2023-04-23T18:31:11.811Z,88.70
2023-04-23T18:33:32.147Z,88.30
2023-04-23T18:35:35.616Z,87.80
2023-04-23T18:37:43.943Z,88.60
2023-04-23T18:39:48.025Z,87.80
2023-04-23T18:41:51.569Z,88.50
2023-04-23T18:43:55.331Z,89.10
2023-04-23T18:46:00.620Z,88.70
2023-04-23T18:48:18.907Z,88.20
2023-04-23T18:50:37.248Z,87.90
2023-04-23T18:52:40.843Z,88.70
2023-04-23T18:54:44.537Z,88.70
2023-04-23T18:56:48.865Z,89.00
2023-04-23T18:58:52.255Z,89.50
2023-04-23T19:00:56.004Z,88.30
2023-04-23T19:03:06.524Z,86.80
2023-04-23T19:05:13.133Z,86.10
2023-04-23T19:07:16.694Z,88.50
2023-04-23T19:09:19.938Z,88.80
2023-04-23T19:11:23.068Z,88.20
2023-04-23T19:13:27.035Z,88.20
2023-04-23T19:15:30.635Z,89.10
2023-04-23T19:17:35.184Z,89.30
2023-04-23T19:19:40.180Z,89.30
2023-04-23T19:21:43.752Z,90.20
2023-04-23T19:23:47.116Z,89.50
2023-04-23T19:25:50.375Z,87.50
2023-04-23T19:27:54.058Z,87.90
2023-04-23T19:29:57.235Z,88.40
2023-04-23T19:32:00.490Z,87.30
2023-04-23T19:34:03.873Z,85.30
2023-04-23T19:36:09.105Z,85.00
2023-04-23T19:38:12.558Z,85.90
2023-04-23T19:40:16.384Z,87.00
2023-04-23T19:42:20.378Z,86.10
2023-04-23T19:44:23.675Z,87.60
2023-04-23T19:46:27.161Z,87.30
2023-04-23T19:48:31.150Z,87.30
2023-04-23T19:50:35.061Z,87.00
2023-04-23T19:52:39.669Z,86.40
2023-04-23T19:54:44.843Z,86.50
2023-04-23T19:56:48.141Z,86.70
2023-04-23T19:58:51.857Z,86.70
2023-04-23T20:00:55.152Z,87.30
2023-04-23T20:02:58.696Z,87.20
2023-04-23T20:05:03.345Z,87.20
2023-04-23T20:07:07.290Z,86.80
2023-04-23T20:09:18.220Z,86.40
2023-04-23T20:11:21.752Z,86.80
2023-04-23T20:13:25.398Z,87.20
2023-04-23T20:15:28.698Z,87.40
2023-04-23T20:17:31.922Z,87.40
2023-04-23T20:19:35.278Z,87.90
2023-04-23T20:21:39.101Z,87.70
2023-04-23T20:23:42.265Z,87.20
2023-04-23T20:25:48.131Z,88.10
2023-04-23T20:27:51.919Z,87.20
2023-04-23T20:29:55.511Z,87.60
2023-04-23T20:31:58.717Z,87.00
2023-04-23T20:34:02.214Z,89.40
2023-04-23T20:36:06.716Z,89.60
2023-04-23T20:38:09.935Z,89.10
2023-04-23T20:40:14.515Z,88.80
2023-04-23T20:42:19.553Z,88.70
2023-04-23T20:44:24.025Z,89.50
2023-04-23T20:46:30.135Z,88.90
2023-04-23T20:48:33.926Z,88.10
2023-04-23T20:50:37.210Z,87.50
2023-04-23T20:52:40.543Z,87.40
2023-04-23T20:54:43.746Z,87.60
2023-04-23T20:56:46.863Z,87.80
2023-04-23T20:58:51.560Z,87.90
2023-04-23T21:00:55.034Z,88.10
2023-04-23T21:02:58.627Z,87.40
2023-04-23T21:05:01.821Z,89.90
2023-04-23T21:07:05.027Z,89.60
2023-04-23T21:09:08.214Z,88.40
2023-04-23T21:11:14.889Z,88.80
2023-04-23T21:13:18.078Z,88.90
2023-04-23T21:15:22.834Z,87.90
2023-04-23T21:17:26.460Z,87.80
2023-04-23T21:19:29.586Z,87.40
2023-04-23T21:21:33.206Z,87.40
2023-04-23T21:23:37.077Z,87.50
2023-04-23T21:25:40.778Z,87.20
2023-04-23T21:27:46.628Z,88.20
2023-04-23T21:29:51.141Z,88.90
2023-04-23T21:31:56.301Z,88.80
2023-04-23T21:33:59.845Z,89.00
2023-04-23T21:36:03.176Z,90.20
2023-04-23T21:38:06.658Z,89.70
2023-04-23T21:40:11.231Z,90.00
2023-04-23T21:42:15.111Z,89.20
2023-04-23T21:44:18.595Z,88.70
2023-04-23T21:46:24.294Z,89.30
2023-04-23T21:48:31.308Z,89.20
2023-04-23T21:50:34.771Z,87.80
2023-04-23T21:52:38.277Z,90.00
2023-04-23T21:54:41.469Z,90.60
2023-04-23T21:56:44.872Z,90.00
2023-04-23T21:58:48.112Z,88.90
2023-04-23T22:00:51.355Z,89.10
2023-04-23T22:02:56.574Z,90.00
2023-04-23T22:05:01.669Z,88.80
2023-04-23T22:07:07.231Z,89.90
2023-04-23T22:09:10.494Z,88.90
2023-04-23T22:11:14.660Z,90.10
2023-04-23T22:13:19.838Z,89.90
2023-04-23T22:15:25.527Z,89.70
2023-04-23T22:17:32.004Z,89.60
2023-04-23T22:19:35.477Z,90.20
2023-04-23T22:21:40.424Z,90.30
2023-04-23T22:23:43.809Z,89.60
2023-04-23T22:25:47.571Z,90.10
2023-04-23T22:27:50.728Z,90.20
2023-04-23T22:29:54.679Z,90.20
2023-04-23T22:31:57.906Z,88.90
2023-04-23T22:34:01.664Z,90.20
2023-04-23T22:36:05.516Z,90.00
2023-04-23T22:38:10.274Z,90.10
2023-04-23T22:40:13.675Z,89.40
2023-04-23T22:42:17.003Z,90.00
2023-04-23T22:44:20.225Z,89.40
2023-04-23T22:46:23.590Z,89.50
2023-04-23T22:48:28.058Z,89.20
2023-04-23T22:50:31.708Z,90.40
2023-04-23T22:52:35.049Z,90.10
2023-04-23T22:54:39.935Z,90.30
2023-04-23T22:56:43.470Z,90.60
2023-04-23T22:58:46.821Z,90.60
2023-04-23T23:00:50.106Z,91.20
2023-04-23T23:02:53.769Z,92.00
2023-04-23T23:04:57.382Z,91.50
2023-04-23T23:07:00.595Z,91.40
2023-04-23T23:09:03.784Z,91.40
2023-04-23T23:11:08.556Z,90.90
2023-04-23T23:13:11.951Z,90.50
2023-04-23T23:15:15.202Z,90.20
2023-04-23T23:17:18.375Z,90.00
2023-04-23T23:19:21.636Z,89.40
2023-04-23T23:21:25.114Z,89.80
2023-04-23T23:23:28.511Z,90.70
2023-04-23T23:25:31.795Z,90.40
2023-04-23T23:27:36.651Z,90.60
2023-04-23T23:29:40.333Z,90.40
2023-04-23T23:31:44.217Z,90.40
2023-04-23T23:33:47.576Z,90.20
2023-04-23T23:35:51.045Z,90.30
2023-04-23T23:37:54.397Z,90.40
2023-04-23T23:39:57.585Z,90.10
2023-04-23T23:42:02.272Z,90.20
2023-04-23T23:44:06.869Z,90.60
2023-04-23T23:46:10.602Z,90.60
2023-04-23T23:48:14.124Z,90.30
2023-04-23T23:50:17.525Z,90.20
2023-04-23T23:52:20.762Z,89.80
2023-04-23T23:54:23.975Z,90.10
2023-04-23T23:56:27.177Z,90.20
2023-04-23T23:58:30.423Z,90.40
